South Newbury, Vermont
Current Conditions -  °F | °C
As of 10:51 PM on Saturday 24 Jan 2015 (Local Time) from KMPV Reporting Station
Light Snow Light Snow  
Wind Chill: 21°   Ceiling: 4200
Heat Index: 26°   Visibility: 4mi
Dew Point: 23°   Wind: 5mph
Humidity: 88%   Direction: 330°NNW
Pressure: 29.29"   Gusts: NA
Location:  44.1081°N, 72.1208°W
Report Text: KMPV 250351Z AUTO 33004KT 4SM -SN BR SCT022 OVC042 M03/M05 A2929 RMK AO2 SLP936 P0000 T10331050
Loading
Personal Weather Stations






























Interactive Weather Map New forecast layout! Learn more

10-Day Weather Forecast

Advertisements
Track Severe Weather on mobile